Time;durP1;ratioP1;P1;durP2;ratioP2;P2;SDS_P1;SDS_P2;PMS_P1;PMS_P2;Temp;Humidity;BMP_temperature;BMP_pressure;BME280_temperature;BME280_humidity;BME280_pressure;Samples;Min_cycle;Max_cycle;Signal;HPM_P1;HPM_P2
2022/06/08 00:02:01;;;;;;;20.25;16.50;;;;;;;;;;5030358;28;20026;-70
2022/06/08 00:04:27;;;;;;;20.52;17.27;;;15.10;99.90;;;;;;5029563;28;20049;-70
2022/06/08 00:06:53;;;;;;;20.67;17.98;;;15.10;99.90;;;;;;5031134;28;20105;-70
2022/06/08 00:09:19;;;;;;;20.80;18.67;;;15.30;99.90;;;;;;5030477;28;20033;-70
2022/06/08 00:11:46;;;;;;;20.83;18.63;;;15.10;99.90;;;;;;5030863;28;20105;-70
2022/06/08 00:14:13;;;;;;;19.73;16.80;;;15.00;99.90;;;;;;5030480;28;20451;-70
2022/06/08 00:16:40;;;;;;;19.55;17.55;;;15.00;99.90;;;;;;5030511;28;20018;-70
2022/06/08 00:19:06;;;;;;;20.70;17.05;;;14.90;99.90;;;;;;5030418;28;20500;-70
2022/06/08 00:21:31;;;;;;;21.38;17.17;;;14.90;99.90;;;;;;5030137;28;20119;-70
2022/06/08 00:23:57;;;;;;;21.48;19.33;;;16.50;99.90;;;;;;5030820;28;20025;-70
2022/06/08 00:26:24;;;;;;;20.15;17.40;;;14.80;99.90;;;;;;5026558;28;20113;-70
2022/06/08 00:28:51;;;;;;;21.88;18.15;;;14.90;99.90;;;;;;5010964;28;20387;-70
2022/06/08 00:31:17;;;;;;;22.27;18.35;;;15.00;99.90;;;;;;5010023;28;20026;-70
2022/06/08 00:33:43;;;;;;;19.23;17.25;;;14.70;99.90;;;;;;5010813;28;20026;-70
2022/06/08 00:36:09;;;;;;;20.75;18.55;;;14.90;99.90;;;;;;5010297;28;20033;-70
2022/06/08 00:38:35;;;;;;;20.33;18.08;;;14.80;99.90;;;;;;5010689;28;20061;-70
2022/06/08 00:41:32;;;;;;;19.80;17.80;;;14.80;99.90;;;;;;5010155;28;20172;-70
2022/06/08 00:43:58;;;;;;;21.55;18.27;;;15.00;99.90;;;;;;5010138;28;20419;-70
2022/06/08 00:46:24;;;;;;;21.08;18.77;;;15.00;99.90;;;;;;5010595;28;20482;-70
2022/06/08 00:48:54;;;;;;;18.08;16.17;;;15.10;99.90;;;;;;5010663;28;20076;-70
2022/06/08 00:51:19;;;;;;;18.42;16.48;;;15.20;99.90;;;;;;5008585;28;20022;-70
2022/06/08 00:54:08;;;;;;;19.40;17.13;;;15.20;99.90;;;;;;5010506;28;20160;-70
2022/06/08 00:56:41;;;;;;;22.35;19.40;;;15.20;99.90;;;;;;5017259;28;20034;-70
2022/06/08 00:59:08;;;;;;;20.30;18.20;;;15.30;99.90;;;;;;5028945;28;20101;-70
2022/06/08 01:01:33;;;;;;;17.98;16.10;;;15.40;99.90;;;;;;5029910;28;20479;-70
2022/06/08 01:04:08;;;;;;;20.23;17.80;;;15.50;99.90;;;;;;5029420;28;20056;-70
2022/06/08 01:06:34;;;;;;;20.45;18.25;;;16.30;99.90;;;;;;5029950;28;20436;-70
2022/06/08 01:08:59;;;;;;;20.02;17.95;;;15.60;99.90;;;;;;5029382;28;20022;-70
2022/06/08 01:11:36;;;;;;;19.63;17.60;;;15.60;99.90;;;;;;5029790;28;20048;-70
2022/06/08 01:14:05;;;;;;;21.55;18.73;;;15.60;99.90;;;;;;5028971;28;20018;-71
2022/06/08 01:16:31;;;;;;;20.88;17.23;;;15.80;99.90;;;;;;5029633;28;20100;-70
2022/06/08 01:18:57;;;;;;;20.90;17.58;;;15.70;99.90;;;;;;5029590;28;20433;-70
2022/06/08 01:21:22;;;;;;;20.55;18.05;;;15.80;99.90;;;;;;5029427;28;20026;-70
2022/06/08 01:24:03;;;;;;;20.30;17.17;;;15.70;99.90;;;;;;5029706;28;20112;-70
2022/06/08 01:26:40;;;;;;;20.02;17.83;;;15.80;99.90;;;;;;5023346;28;20379;-70
2022/06/08 01:29:18;;;;;;;20.85;18.58;;;15.70;99.90;;;;;;5009078;28;20494;-70
2022/06/08 01:32:24;;;;;;;19.58;17.42;;;15.80;99.90;;;;;;5009947;28;20132;-70
2022/06/08 01:35:01;;;;;;;20.40;17.15;;;15.80;99.90;;;;;;5009180;28;20160;-70
2022/06/08 01:38:08;;;;;;;25.08;18.63;;;17.00;99.90;;;;;;5009796;28;20026;-70
2022/06/08 01:40:52;;;;;;;18.83;16.83;;;15.90;99.90;;;;;;5009292;28;20129;-70
2022/06/08 01:43:25;;;;;;;22.10;17.38;;;15.80;99.90;;;;;;5007301;28;20569;-70
2022/06/08 01:45:59;;;;;;;21.60;19.40;;;15.80;99.90;;;;;;5008312;28;20037;-70
2022/06/08 01:48:41;;;;;;;20.45;18.30;;;15.90;99.90;;;;;;5009565;28;20072;-70
2022/06/08 01:51:25;;;;;;;21.10;18.10;;;15.80;99.90;;;;;;5009140;28;20018;-70
2022/06/08 01:54:06;;;;;;;;;;;15.90;99.90;;;;;;5009891;28;20032;-70
2022/06/08 01:56:47;;;;;;;21.60;19.13;;;15.80;99.90;;;;;;5015692;28;19994;-70
2022/06/08 01:59:34;;;;;;;21.27;18.15;;;15.80;99.90;;;;;;5028841;28;20057;-70
2022/06/08 02:02:10;;;;;;;21.42;18.52;;;15.80;99.90;;;;;;5014294;28;20084;-70
2022/06/08 02:04:51;;;;;;;22.42;19.73;;;15.80;99.90;;;;;;5009462;28;20103;-70
2022/06/08 02:07:17;;;;;;;22.08;19.75;;;;;;;;;;5008899;28;20033;-70
2022/06/08 02:09:50;;;;;;;24.10;20.77;;;15.80;99.90;;;;;;5009353;28;20022;-70
2022/06/08 02:12:16;;;;;;;23.75;21.17;;;16.00;99.90;;;;;;5008482;28;20054;-70
2022/06/08 02:15:04;;;;;;;24.83;20.38;;;16.80;99.90;;;;;;5009254;28;20053;-70
2022/06/08 02:17:59;;;;;;;25.65;21.90;;;15.80;99.90;;;;;;5009194;28;20037;-70
2022/06/08 02:20:36;;;;;;;25.83;22.92;;;15.90;99.90;;;;;;5009084;28;20030;-70
2022/06/08 02:23:19;;;;;;;25.50;21.73;;;15.80;99.90;;;;;;5008743;28;20020;-70
2022/06/08 02:26:02;;;;;;;25.50;22.23;;;15.80;99.90;;;;;;5011034;28;20088;-70
2022/06/08 02:28:33;;;;;;;26.08;21.08;;;15.70;99.90;;;;;;5028847;28;20033;-70
2022/06/08 02:31:22;;;;;;;26.65;23.63;;;16.40;99.90;;;;;;5008859;28;20046;-70
2022/06/08 02:37:07;;;;;;;25.38;22.38;;;15.40;99.90;;;;;;5009487;28;20099;-70
2022/06/08 02:39:57;;;;;;;25.88;22.00;;;15.30;99.90;;;;;;5005383;28;20076;-70
2022/06/08 02:42:35;;;;;;;27.45;21.58;;;15.20;99.90;;;;;;5008615;28;20471;-70
2022/06/08 02:45:15;;;;;;;23.70;21.05;;;15.10;99.90;;;;;;5010053;28;20034;-70
2022/06/08 02:47:43;;;;;;;27.45;21.85;;;15.10;99.90;;;;;;5012869;28;20486;-70
2022/06/08 02:50:16;;;;;;;25.58;21.10;;;15.00;99.90;;;;;;5012023;28;20026;-70
2022/06/08 02:52:44;;;;;;;26.02;22.50;;;14.80;99.90;;;;;;5013007;28;20098;-70
2022/06/08 02:55:27;;;;;;;27.00;22.23;;;14.80;99.90;;;;;;5012356;28;20033;-70
2022/06/08 02:58:03;;;;;;;26.27;22.60;;;14.60;99.90;;;;;;5032464;28;20033;-70
2022/06/08 03:00:40;;;;;;;27.65;23.33;;;14.70;99.90;;;;;;5031935;28;20033;-70
2022/06/08 03:03:12;;;;;;;26.20;23.10;;;14.50;99.90;;;;;;5031861;28;20451;-70
2022/06/08 03:05:44;;;;;;;26.27;21.77;;;14.30;99.90;;;;;;5032101;28;20045;-70
2022/06/08 03:08:35;;;;;;;24.20;21.60;;;14.20;99.90;;;;;;5031399;28;20045;-69
2022/06/08 03:11:04;;;;;;;25.50;21.98;;;14.30;99.90;;;;;;5030551;28;20021;-70
2022/06/08 03:13:37;;;;;;;26.30;22.45;;;14.20;99.90;;;;;;5029559;28;20026;-70
2022/06/08 03:16:06;;;;;;;28.40;22.80;;;14.40;99.90;;;;;;5029644;28;20032;-70
2022/06/08 03:18:32;;;;;;;29.63;23.00;;;;;;;;;;5018386;28;20121;-70
2022/06/08 03:21:01;;;;;;;28.25;23.45;;;14.20;99.90;;;;;;5010013;28;20483;-70
2022/06/08 03:23:27;;;;;;;27.42;23.65;;;14.10;99.90;;;;;;5009465;28;20046;-70
2022/06/08 03:25:54;;;;;;;27.42;21.65;;;14.20;99.90;;;;;;5010124;28;20467;-70
2022/06/08 03:28:20;;;;;;;27.40;23.33;;;14.20;99.90;;;;;;5011474;28;20163;-70
2022/06/08 03:30:46;;;;;;;32.17;24.15;;;14.20;99.90;;;;;;5012032;28;20036;-70
2022/06/08 03:33:12;;;;;;;28.92;23.88;;;14.30;99.90;;;;;;5011484;28;20097;-70
2022/06/08 03:35:39;;;;;;;26.98;23.73;;;14.20;99.90;;;;;;5011940;28;20033;-70
2022/06/08 03:38:05;;;;;;;29.08;22.83;;;14.30;99.90;;;;;;5011818;28;20030;-70
2022/06/08 03:40:31;;;;;;;28.25;23.63;;;14.30;99.90;;;;;;5011638;28;20038;-70
2022/06/08 03:42:57;;;;;;;30.50;24.00;;;14.20;99.90;;;;;;5011942;28;20022;-70
2022/06/08 03:45:25;;;;;;;26.55;22.65;;;14.50;99.90;;;;;;5011233;28;20030;-70
2022/06/08 03:47:53;;;;;;;27.23;24.02;;;14.40;99.90;;;;;;5011685;28;20522;-70
2022/06/08 03:50:23;;;;;;;28.50;24.25;;;15.80;99.90;;;;;;5010836;28;20085;-70
2022/06/08 03:52:57;;;;;;;28.00;22.67;;;14.50;99.90;;;;;;5009884;28;20022;-70
2022/06/08 03:55:26;;;;;;;29.40;24.02;;;14.50;99.90;;;;;;5009617;28;20589;-70
2022/06/08 03:57:52;;;;;;;29.00;23.15;;;14.70;99.90;;;;;;5010675;28;20022;-70
2022/06/08 04:00:20;;;;;;;27.50;23.13;;;14.50;99.90;;;;;;5010855;28;20038;-70
2022/06/08 04:02:47;;;;;;;26.67;23.77;;;16.00;99.90;;;;;;5011437;28;20014;-70
2022/06/08 04:05:14;;;;;;;27.42;24.35;;;14.40;99.90;;;;;;5009139;28;20137;-70
2022/06/08 04:07:39;;;;;;;26.75;22.65;;;14.90;99.90;;;;;;5025011;28;20033;-70
2022/06/08 04:10:05;;;;;;;27.42;20.63;;;14.80;99.90;;;;;;5030665;28;20021;-70
2022/06/08 04:12:31;;;;;;;27.25;23.73;;;14.50;99.90;;;;;;5030668;28;20060;-70
2022/06/08 04:14:57;;;;;;;29.10;23.83;;;14.60;99.90;;;;;;5031017;28;20113;-70
2022/06/08 04:17:22;;;;;;;28.15;24.42;;;14.70;99.90;;;;;;5030530;28;20146;-70
2022/06/08 04:19:48;;;;;;;29.92;22.73;;;14.60;99.90;;;;;;5030638;28;20103;-70
2022/06/08 04:22:16;;;;;;;26.52;23.48;;;14.60;99.90;;;;;;5029973;28;20026;-70
2022/06/08 04:24:42;;;;;;;30.70;24.77;;;14.70;99.90;;;;;;5029223;28;20087;-70
2022/06/08 04:27:09;;;;;;;26.60;21.90;;;15.90;99.90;;;;;;5030250;28;20095;-70
2022/06/08 04:29:34;;;;;;;25.90;22.27;;;14.90;99.90;;;;;;5030804;28;20059;-70
2022/06/08 04:32:00;;;;;;;27.63;24.25;;;15.10;99.90;;;;;;5030011;28;20454;-70
2022/06/08 04:34:26;;;;;;;26.45;23.45;;;14.90;99.90;;;;;;5030557;28;20037;-70
2022/06/08 04:36:52;;;;;;;29.92;23.90;;;15.00;99.90;;;;;;5028086;28;20045;-70
2022/06/08 04:39:18;;;;;;;27.13;21.85;;;;;;;;;;5029926;28;20029;-70
2022/06/08 04:41:45;;;;;;;27.25;22.27;;;15.00;99.90;;;;;;5030458;28;20037;-70
2022/06/08 04:44:10;;;;;;;28.45;22.20;;;15.20;99.90;;;;;;5029821;28;20636;-70
2022/06/08 04:46:37;;;;;;;26.17;21.45;;;15.20;99.90;;;;;;5030089;28;20036;-70
2022/06/08 04:49:03;;;;;;;27.60;22.90;;;15.30;99.90;;;;;;5029666;28;20064;-70
2022/06/08 04:51:29;;;;;;;25.58;22.27;;;15.50;99.90;;;;;;5029267;28;20025;-70
2022/06/08 04:53:55;;;;;;;23.95;21.23;;;15.30;99.90;;;;;;5030202;28;20512;-70
2022/06/08 04:56:20;;;;;;;24.75;22.02;;;15.60;99.90;;;;;;5029304;28;20033;-70
2022/06/08 04:58:46;;;;;;;23.50;20.90;;;15.50;99.90;;;;;;5029649;28;20052;-70
2022/06/08 05:01:12;;;;;;;23.10;20.50;;;15.60;99.90;;;;;;5025844;28;20347;-70
2022/06/08 05:03:37;;;;;;;21.98;19.65;;;15.70;99.90;;;;;;5029360;28;20037;-70
2022/06/08 05:06:03;;;;;;;24.55;21.92;;;18.10;99.90;;;;;;5028259;28;20075;-70
2022/06/08 05:08:29;;;;;;;24.40;20.67;;;15.80;99.90;;;;;;5023932;28;20426;-70
2022/06/08 05:10:56;;;;;;;24.27;21.67;;;15.90;99.90;;;;;;5029836;28;20473;-70
2022/06/08 05:13:23;;;;;;;22.50;20.20;;;17.10;99.90;;;;;;5029231;28;20030;-70
2022/06/08 05:15:49;;;;;;;21.88;19.63;;;16.10;99.90;;;;;;5026055;28;20045;-70
2022/06/08 05:18:18;;;;;;;21.38;18.52;;;16.30;99.90;;;;;;5009483;28;20536;-70
2022/06/08 05:20:44;;;;;;;20.58;18.38;;;17.20;99.90;;;;;;5009728;28;20046;-70
2022/06/08 05:23:22;;;;;;;21.30;19.13;;;16.60;99.90;;;;;;5009572;28;20214;-70
2022/06/08 05:25:47;;;;;;;21.65;19.35;;;16.80;99.90;;;;;;5010066;28;20038;-70
2022/06/08 05:28:13;;;;;;;20.33;18.17;;;17.00;99.90;;;;;;5009525;28;20157;-71
2022/06/08 05:30:40;;;;;;;20.75;18.55;;;17.10;99.90;;;;;;5010038;28;20128;-70
2022/06/08 05:33:06;;;;;;;20.10;17.35;;;17.20;99.90;;;;;;5009464;28;20168;-70
2022/06/08 05:35:33;;;;;;;20.48;18.10;;;17.40;99.90;;;;;;5009398;28;20037;-70
2022/06/08 05:37:59;;;;;;;17.85;16.02;;;17.20;99.90;;;;;;5024963;28;20044;-70
2022/06/08 05:40:28;;;;;;;20.52;18.52;;;17.30;99.90;;;;;;5029451;28;20136;-69
2022/06/08 05:42:54;;;;;;;17.83;16.02;;;17.30;99.90;;;;;;5029338;28;20109;-71
2022/06/08 05:45:24;;;;;;;16.83;15.13;;;17.30;99.90;;;;;;5028740;28;20033;-69
2022/06/08 05:47:50;;;;;;;15.88;14.30;;;17.30;99.90;;;;;;5027518;28;20155;-69
2022/06/08 05:50:17;;;;;;;17.98;16.17;;;17.30;99.90;;;;;;5026278;28;20025;-69
2022/06/08 05:52:43;;;;;;;17.98;16.15;;;17.30;99.90;;;;;;5029221;28;20110;-69
2022/06/08 05:55:09;;;;;;;17.33;15.63;;;17.30;99.90;;;;;;5028273;28;20113;-69
2022/06/08 05:57:36;;;;;;;15.52;13.77;;;17.40;99.90;;;;;;5028740;28;20021;-69
2022/06/08 06:00:05;;;;;;;15.18;13.77;;;17.40;99.90;;;;;;5026729;28;20048;-69
2022/06/08 06:02:31;;;;;;;17.10;14.43;;;;;;;;;;5028141;28;20022;-69
2022/06/08 06:04:57;;;;;;;16.15;14.45;;;17.50;99.90;;;;;;5028030;28;20060;-69
2022/06/08 06:07:22;;;;;;;15.27;13.70;;;17.60;99.90;;;;;;5028304;28;20027;-69
2022/06/08 06:09:48;;;;;;;15.15;13.68;;;17.70;99.90;;;;;;5026232;28;20049;-69
2022/06/08 06:12:14;;;;;;;13.52;12.13;;;17.80;99.90;;;;;;5008697;28;20061;-69
2022/06/08 06:14:39;;;;;;;12.05;10.85;;;17.80;99.90;;;;;;5009627;28;20030;-69
2022/06/08 06:17:05;;;;;;;12.55;11.25;;;17.90;99.90;;;;;;5008632;28;20463;-69
2022/06/08 06:19:31;;;;;;;12.93;10.63;;;17.90;99.90;;;;;;5009734;28;20045;-69
2022/06/08 06:21:56;;;;;;;15.27;11.95;;;18.70;99.90;;;;;;5015521;28;20044;-69
2022/06/08 06:24:22;;;;;;;13.05;10.85;;;18.60;99.90;;;;;;5032521;28;20030;-69
2022/06/08 06:26:48;;;;;;;11.15;9.95;;;17.80;99.90;;;;;;5018160;28;20103;-69
2022/06/08 06:29:14;;;;;;;10.57;9.50;;;17.80;99.90;;;;;;5020530;28;20061;-69
2022/06/08 06:31:55;;;;;;;10.43;9.43;;;18.10;99.90;;;;;;5019469;28;20030;-69
2022/06/08 06:34:24;;;;;;;13.82;10.35;;;18.10;99.90;;;;;;5031609;28;20048;-69
2022/06/08 06:36:54;;;;;;;14.07;11.38;;;18.80;99.90;;;;;;5032885;28;20034;-69
2022/06/08 06:39:23;;;;;;;14.13;12.82;;;18.90;99.90;;;;;;5031958;28;20045;-69
2022/06/08 06:41:49;;;;;;;20.60;15.75;;;18.20;99.90;;;;;;5032642;28;20091;-69
2022/06/08 06:44:15;;;;;;;12.40;10.38;;;18.30;99.90;;;;;;5032261;28;20118;-69
2022/06/08 06:46:41;;;;;;;14.73;13.38;;;18.30;99.90;;;;;;5032320;28;20036;-69
2022/06/08 06:49:07;;;;;;;13.60;12.20;;;18.40;99.90;;;;;;5032225;28;20026;-70
2022/06/08 06:51:34;;;;;;;14.90;13.48;;;18.50;99.90;;;;;;5032659;28;20398;-70
2022/06/08 06:54:04;;;;;;;14.57;13.07;;;18.40;99.90;;;;;;5030385;28;20029;-70
2022/06/08 06:56:32;;;;;;;14.32;12.95;;;19.40;99.90;;;;;;5028614;28;20490;-70
2022/06/08 06:58:58;;;;;;;14.27;12.75;;;18.50;99.90;;;;;;5031140;28;20022;-69
2022/06/08 07:01:24;;;;;;;13.82;12.05;;;18.30;99.90;;;;;;5031281;28;20032;-70
2022/06/08 07:03:50;;;;;;;15.10;12.20;;;19.60;99.90;;;;;;5029571;28;20049;-69
2022/06/08 07:06:15;;;;;;;12.90;11.52;;;18.50;99.90;;;;;;5028929;28;20021;-69
2022/06/08 07:08:41;;;;;;;12.05;10.93;;;19.70;99.90;;;;;;5031586;28;20480;-69
2022/06/08 07:13:51;;;;;;;10.57;9.27;;;18.70;99.90;;;;;;5031914;28;20043;-68
2022/06/08 07:16:16;;;;;;;10.30;8.75;;;19.10;99.90;;;;;;5029482;28;20132;-69
2022/06/08 07:18:42;;;;;;;9.40;7.07;;;19.00;99.90;;;;;;5031115;28;20041;-69
2022/06/08 07:21:09;;;;;;;9.10;6.15;;;18.80;99.90;;;;;;5011814;28;20041;-69
2022/06/08 07:23:35;;;;;;;6.22;5.63;;;19.00;99.90;;;;;;5013664;28;20030;-69
2022/06/08 07:26:01;;;;;;;8.60;6.63;;;19.00;99.90;;;;;;5021745;28;20120;-69
2022/06/08 07:28:27;;;;;;;7.15;5.60;;;19.20;99.90;;;;;;5031597;28;20053;-69
2022/06/08 07:30:52;;;;;;;5.88;5.28;;;19.10;99.90;;;;;;5030234;28;20439;-69
2022/06/08 07:33:19;;;;;;;5.47;4.82;;;19.00;99.90;;;;;;5030172;28;20057;-69
2022/06/08 07:35:45;;;;;;;6.72;4.93;;;20.00;99.90;;;;;;5030093;28;20378;-68
2022/06/08 07:38:11;;;;;;;6.07;5.15;;;19.40;99.90;;;;;;5030674;28;20501;-69
2022/06/08 07:40:36;;;;;;;6.93;5.95;;;19.30;99.90;;;;;;5030848;28;20042;-69
2022/06/08 07:43:02;;;;;;;7.35;4.70;;;19.50;99.90;;;;;;5030896;28;20104;-69
2022/06/08 07:45:27;;;;;;;6.20;4.82;;;19.70;99.90;;;;;;5030335;28;20108;-69
2022/06/08 07:50:37;;;;;;;5.60;4.47;;;20.80;99.90;;;;;;5029054;28;20071;-69
2022/06/08 07:53:03;;;;;;;6.32;5.40;;;20.80;99.90;;;;;;5016329;28;20446;-69
2022/06/08 07:55:29;;;;;;;7.22;4.13;;;19.70;99.90;;;;;;5030762;28;20066;-69
2022/06/08 07:57:54;;;;;;;7.03;4.68;;;20.10;99.90;;;;;;5031117;28;20025;-69
2022/06/08 08:00:21;;;;;;;5.57;4.05;;;19.90;99.90;;;;;;5029133;28;20498;-69
2022/06/08 08:02:46;;;;;;;7.45;5.30;;;20.10;99.90;;;;;;5030772;28;20434;-69
2022/06/08 08:05:14;;;;;;;4.80;4.25;;;20.00;99.90;;;;;;5029861;28;20056;-69
2022/06/08 08:07:41;;;;;;;5.38;4.38;;;20.50;99.90;;;;;;5030556;28;20025;-69
2022/06/08 08:10:11;;;;;;;8.63;4.40;;;20.60;99.90;;;;;;5030344;28;20497;-69
2022/06/08 08:12:37;;;;;;;5.45;3.90;;;19.10;99.90;;;;;;5029205;28;20074;-69
2022/06/08 08:15:04;;;;;;;9.77;4.72;;;21.50;99.90;;;;;;5029762;28;20026;-69
2022/06/08 08:17:29;;;;;;;4.03;3.67;;;21.50;99.90;;;;;;5030379;28;20494;-69
2022/06/08 08:19:55;;;;;;;6.25;4.05;;;21.60;99.90;;;;;;5023119;28;20080;-69
2022/06/08 08:22:21;;;;;;;7.85;4.45;;;21.80;99.90;;;;;;5010448;28;20065;-69
2022/06/08 08:24:47;;;;;;;5.20;3.63;;;22.90;99.90;;;;;;5010832;28;20050;-69
2022/06/08 08:27:13;;;;;;;3.60;3.30;;;22.00;99.90;;;;;;5028464;28;20064;-69
2022/06/08 08:29:39;;;;;;;5.60;3.72;;;22.20;99.90;;;;;;5029891;28;20021;-69
2022/06/08 08:32:05;;;;;;;5.78;3.88;;;22.10;99.90;;;;;;5029776;28;20144;-69
2022/06/08 08:34:30;;;;;;;5.80;3.95;;;22.20;99.90;;;;;;5030109;28;20478;-69
2022/06/08 08:36:56;;;;;;;5.93;3.40;;;22.10;99.90;;;;;;5027750;28;20148;-69
2022/06/08 08:39:23;;;;;;;6.10;3.35;;;22.20;99.90;;;;;;5029319;28;20056;-69
2022/06/08 08:44:44;;;;;;;6.93;3.40;;;22.80;99.90;;;;;;5029448;28;20040;-69
2022/06/08 08:47:32;;;;;;;5.43;3.08;;;22.50;99.60;;;;;;5029119;28;20078;-69
2022/06/08 08:50:18;;;;;;;6.43;2.45;;;22.60;99.40;;;;;;5020710;28;20033;-69
2022/06/08 08:52:54;;;;;;;4.50;2.75;;;22.70;99.00;;;;;;5009188;28;20034;-69
2022/06/08 08:55:50;;;;;;;3.22;2.75;;;22.70;98.70;;;;;;5008340;28;20026;-69
2022/06/08 08:58:21;;;;;;;5.03;3.10;;;22.60;99.60;;;;;;5009273;28;20034;-69
2022/06/08 09:00:49;;;;;;;3.72;3.15;;;22.20;98.60;;;;;;5008603;28;20067;-69
2022/06/08 09:03:22;;;;;;;6.22;3.67;;;22.60;99.30;;;;;;5008021;28;20017;-69
2022/06/08 09:05:51;;;;;;;4.90;4.10;;;22.00;99.60;;;;;;5014995;28;20033;-69
2022/06/08 09:08:19;;;;;;;4.60;4.13;;;22.30;99.50;;;;;;5014570;28;20022;-69
2022/06/08 09:10:45;;;;;;;6.07;4.35;;;22.30;99.50;;;;;;5010124;28;20033;-68
2022/06/08 09:13:29;;;;;;;6.47;3.47;;;23.10;99.60;;;;;;5028636;28;20494;-69
2022/06/08 09:15:57;;;;;;;8.60;4.25;;;22.40;98.70;;;;;;5029718;28;20026;-69
2022/06/08 09:18:33;;;;;;;5.43;4.30;;;22.40;99.20;;;;;;5030194;28;20076;-69
2022/06/08 09:21:00;;;;;;;5.93;3.80;;;22.50;98.30;;;;;;5029125;28;20082;-69
2022/06/08 09:23:43;;;;;;;6.72;3.97;;;23.70;99.00;;;;;;5029152;28;20546;-69
2022/06/08 09:26:13;;;;;;;3.53;2.38;;;22.50;98.20;;;;;;5026604;28;20479;-69
2022/06/08 09:28:39;;;;;;;9.25;3.33;;;22.50;98.90;;;;;;5028894;28;20036;-69
2022/06/08 09:31:22;;;;;;;6.13;3.08;;;22.30;98.60;;;;;;5028442;28;20024;-69
2022/06/08 09:33:48;;;;;;;4.00;3.35;;;22.40;98.60;;;;;;5029348;28;20029;-69
2022/06/08 09:36:27;;;;;;;8.63;2.85;;;23.30;98.90;;;;;;5028500;28;20013;-68
2022/06/08 09:38:54;;;;;;;4.72;3.25;;;22.00;99.10;;;;;;5029317;28;20034;-69
2022/06/08 09:41:50;;;;;;;7.85;2.88;;;22.20;98.80;;;;;;5027377;28;20064;-69
2022/06/08 09:44:26;;;;;;;4.55;3.28;;;21.90;99.20;;;;;;5023968;28;20389;-69
2022/06/08 09:53:35;;;;;;;3.30;2.40;;;22.10;98.70;;;;;;5028125;28;20049;-69
2022/06/08 09:56:13;;;;;;;5.95;3.47;;;22.80;99.10;;;;;;5027360;28;20160;-68
2022/06/08 09:58:45;;;;;;;4.88;2.50;;;22.00;98.80;;;;;;5026521;28;20049;-69
2022/06/08 10:01:23;;;;;;;8.45;2.75;;;22.30;98.90;;;;;;5026889;28;20034;-69
2022/06/08 10:04:14;;;;;;;5.53;2.65;;;22.20;97.50;;;;;;5027535;28;20108;-69
2022/06/08 10:07:01;;;;;;;6.35;3.08;;;22.30;97.80;;;;;;5037445;28;20029;-69
2022/06/08 10:09:47;;;;;;;8.77;2.97;;;22.50;97.20;;;;;;5014351;28;20664;-69
2022/06/08 10:12:59;;;;;;;7.97;3.75;;;22.50;97.30;;;;;;5011754;28;20021;-69
2022/06/08 10:15:42;;;;;;;5.45;2.80;;;22.60;97.30;;;;;;5014030;28;20450;-69
2022/06/08 10:18:19;;;;;;;5.15;2.65;;;22.60;97.10;;;;;;5007352;28;20034;-68
2022/06/08 10:20:52;;;;;;;6.93;2.63;;;22.50;97.00;;;;;;5007775;28;20517;-69
2022/06/08 10:23:51;;;;;;;7.38;2.80;;;22.40;98.00;;;;;;5025115;28;20029;-69
2022/06/08 10:26:29;;;;;;;5.88;2.75;;;22.30;97.50;;;;;;5012947;28;20045;-69
2022/06/08 10:29:10;;;;;;;3.75;2.33;;;22.10;97.30;;;;;;5026267;28;20018;-69
2022/06/08 10:31:42;;;;;;;5.72;2.15;;;22.10;97.30;;;;;;5013272;28;20173;-68
2022/06/08 10:34:25;;;;;;;3.28;2.78;;;22.20;98.20;;;;;;5005616;28;20038;-69
2022/06/08 10:36:54;;;;;;;4.80;2.33;;;22.00;97.40;;;;;;5019594;28;20021;-69
2022/06/08 10:39:21;;;;;;;4.88;1.77;;;22.00;98.00;;;;;;5020358;28;20434;-69
2022/06/08 10:44:53;;;;;;;5.30;1.60;;;22.10;97.50;;;;;;5016661;28;20037;-69
2022/06/08 10:47:29;;;;;;;2.88;1.67;;;23.30;97.70;;;;;;5027531;28;20439;-69
2022/06/08 10:50:01;;;;;;;4.50;1.58;;;22.00;96.80;;;;;;5027241;28;20033;-69
2022/06/08 10:52:46;;;;;;;9.93;1.65;;;21.80;96.90;;;;;;5013960;28;20152;-69
2022/06/08 10:55:14;;;;;;;7.63;1.63;;;21.70;98.10;;;;;;5025287;28;20112;-69
2022/06/08 10:57:49;;;;;;;4.43;1.30;;;21.20;98.40;;;;;;5023884;28;20424;-69
2022/06/08 11:00:20;;;;;;;5.03;1.52;;;20.90;97.60;;;;;;5027478;28;20072;-68
2022/06/08 11:02:59;;;;;;;7.43;1.42;;;20.80;98.60;;;;;;5028031;28;20454;-69
2022/06/08 11:05:44;;;;;;;5.88;2.13;;;20.30;99.10;;;;;;5027226;28;20082;-69
2022/06/08 11:08:10;;;;;;;6.40;1.83;;;21.40;99.90;;;;;;5030268;28;20033;-69
2022/06/08 11:10:44;;;;;;;5.47;1.92;;;21.40;99.90;;;;;;5031977;28;20022;-69
2022/06/08 11:13:35;;;;;;;7.25;2.35;;;19.90;99.90;;;;;;5025701;28;20033;-69
2022/06/08 11:16:28;;;;;;;9.95;2.20;;;21.00;99.90;;;;;;5018164;28;20037;-69
2022/06/08 11:19:10;;;;;;;4.25;2.05;;;19.60;99.90;;;;;;5030509;28;20087;-69
2022/06/08 11:21:36;;;;;;;8.65;2.17;;;19.70;99.90;;;;;;5026293;28;20114;-72
2022/06/08 11:24:20;;;;;;;6.30;2.33;;;19.90;99.90;;;;;;5030775;28;20099;-69
2022/06/08 11:27:12;;;;;;;5.20;2.20;;;19.70;99.90;;;;;;5031596;28;20057;-69
2022/06/08 11:29:39;;;;;;;6.38;2.83;;;20.40;99.90;;;;;;5028328;28;20045;-69
2022/06/08 11:32:05;;;;;;;7.10;3.67;;;19.80;99.90;;;;;;5031151;28;20032;-70
2022/06/08 11:35:14;;;;;;;6.72;2.63;;;19.70;99.90;;;;;;5031412;28;20096;-69
2022/06/08 11:38:00;;;;;;;8.88;2.88;;;19.70;99.90;;;;;;5008235;28;20829;-70
2022/06/08 11:40:30;;;;;;;9.48;2.95;;;19.60;99.90;;;;;;4989272;28;20058;-70
2022/06/08 11:43:06;;;;;;;6.65;2.95;;;19.50;99.90;;;;;;5009027;28;20026;-70
2022/06/08 11:45:42;;;;;;;3.70;2.13;;;19.60;99.90;;;;;;5009054;28;20096;-70
2022/06/08 11:48:16;;;;;;;8.45;2.70;;;19.50;99.90;;;;;;5008368;28;20030;-70
2022/06/08 11:50:48;;;;;;;5.90;2.70;;;19.30;99.90;;;;;;5008801;28;20726;-70
2022/06/08 11:53:24;;;;;;;4.70;2.00;;;19.20;99.90;;;;;;4994766;28;20119;-70
2022/06/08 11:56:24;;;;;;;4.22;1.55;;;20.60;99.90;;;;;;4996175;28;20124;-70
2022/06/08 11:59:18;;;;;;;4.38;2.45;;;19.00;99.90;;;;;;4998863;28;20033;-70
2022/06/08 12:01:52;;;;;;;3.22;1.67;;;19.00;99.90;;;;;;4998012;28;20034;-71
2022/06/08 12:04:25;;;;;;;;;;;18.90;99.90;;;;;;5004291;28;20073;-70
2022/06/08 12:06:53;;;;;;;3.57;1.90;;;18.80;99.90;;;;;;5007969;28;19944;-70
2022/06/08 12:09:26;;;;;;;4.22;1.48;;;18.70;99.90;;;;;;5003430;28;20030;-70
2022/06/08 12:11:57;;;;;;;4.88;2.55;;;18.70;99.90;;;;;;5008235;28;20030;-70
2022/06/08 12:14:38;;;;;;;4.35;2.00;;;18.60;99.90;;;;;;5022736;28;20041;-70
2022/06/08 12:17:10;;;;;;;7.20;2.97;;;18.60;99.90;;;;;;5029793;28;20113;-70
2022/06/08 12:19:53;;;;;;;4.60;1.65;;;18.50;99.90;;;;;;5030072;28;20028;-70
2022/06/08 12:22:19;;;;;;;5.70;2.28;;;18.50;99.90;;;;;;5030310;28;20029;-70
2022/06/08 12:25:04;;;;;;;5.32;2.17;;;19.00;99.90;;;;;;5030401;28;20023;-70
2022/06/08 12:27:38;;;;;;;3.20;1.77;;;18.40;99.90;;;;;;5028906;28;20021;-70
2022/06/08 12:30:19;;;;;;;4.38;1.95;;;18.40;99.90;;;;;;5026199;28;20025;-70
2022/06/08 12:33:01;;;;;;;6.10;2.00;;;18.40;99.90;;;;;;5030533;28;20018;-70
2022/06/08 12:35:33;;;;;;;3.45;1.80;;;18.40;99.90;;;;;;5026368;28;20064;-70
2022/06/08 12:38:16;;;;;;;6.53;2.17;;;18.40;99.90;;;;;;5029651;28;20033;-70
2022/06/08 12:40:42;;;;;;;4.47;2.17;;;18.50;99.90;;;;;;5030022;28;20426;-70
2022/06/08 12:43:10;;;;;;;3.22;2.28;;;18.40;99.90;;;;;;5029779;28;20025;-70
2022/06/08 12:45:40;;;;;;;3.33;1.60;;;18.50;99.90;;;;;;5029190;28;20025;-70
2022/06/08 12:48:36;;;;;;;3.63;1.90;;;18.60;99.90;;;;;;5026265;28;20497;-70
2022/06/08 12:51:19;;;;;;;4.07;2.90;;;18.70;99.90;;;;;;5028911;28;20022;-70
2022/06/08 12:53:45;;;;;;;3.33;2.00;;;20.40;99.90;;;;;;5044664;28;20116;-71
2022/06/08 12:56:11;;;;;;;6.80;2.40;;;18.90;99.90;;;;;;5029091;28;20108;-70
2022/06/08 12:58:36;;;;;;;7.63;2.78;;;18.90;99.90;;;;;;5025474;28;20034;-70
2022/06/08 13:01:03;;;;;;;5.30;2.95;;;18.90;99.90;;;;;;5028876;28;20108;-69
2022/06/08 13:03:29;;;;;;;2.75;1.92;;;18.70;99.90;;;;;;5028583;28;20470;-72
2022/06/08 13:05:56;;;;;;;4.55;2.95;;;18.80;99.90;;;;;;5029772;28;20025;-72
2022/06/08 13:08:25;;;;;;;4.43;2.53;;;19.30;99.90;;;;;;5027872;28;20053;-72
2022/06/08 13:10:54;;;;;;;3.83;2.67;;;18.80;99.90;;;;;;5029528;28;20100;-72
2022/06/08 13:13:25;;;;;;;4.22;1.98;;;18.80;99.90;;;;;;5029328;28;20072;-72
2022/06/08 13:15:51;;;;;;;4.50;1.85;;;18.70;99.90;;;;;;5029590;28;20017;-72
2022/06/08 13:18:20;;;;;;;3.72;1.63;;;19.20;99.90;;;;;;5027136;28;20090;-72
2022/06/08 13:20:46;;;;;;;5.15;1.85;;;18.40;99.90;;;;;;5028488;28;20038;-72
2022/06/08 13:23:13;;;;;;;2.90;1.48;;;18.10;99.90;;;;;;5029019;28;20029;-72